Afton, Wisconsin
Current Conditions -  °F | °C
As of 8:45 PM on Monday 20 Oct 2014 (Local Time) from KJVL Reporting Station
Overcast Overcast  
Wind Chill: 54°   Ceiling: 5500
Heat Index: 54°   Visibility: 10mi
Dew Point: 41°   Wind: 6mph
Humidity: 62%   Direction: 10°N
Pressure: 30"   Gusts: NA
Location:  42.6°N, 89.07°W
Report Text: KJVL 210145Z 01005KT 10SM OVC055 12/05 A3000 RMK LAST
Loading
Personal Weather Stations






























Interactive Weather Map
Tropical Storm Tracking
New forecast layout! Learn more

10-Day Weather Forecast

Advertisements
Track Severe Weather on mobile